Time;durP1;ratioP1;P1;durP2;ratioP2;P2;SDS_P1;SDS_P2;PMS_P1;PMS_P2;Temp;Humidity;BMP_temperature;BMP_pressure;BME280_temperature;BME280_humidity;BME280_pressure;Samples;Min_cycle;Max_cycle;Signal;HPM_P1;HPM_P2
2023/01/26 00:01:32;;;;;;;102.32;38.90;;;-0.80;99.90;;;-144.05;72.50;125687.94;4994404;28;20490;-75
2023/01/26 00:03:58;;;;;;;93.30;35.15;;;-0.80;99.90;;;-144.05;71.94;125687.94;4994048;28;20029;-75
2023/01/26 00:06:25;;;;;;;89.78;33.95;;;-0.80;99.90;;;-144.05;72.32;125687.94;4994173;28;20394;-77
2023/01/26 00:08:58;;;;;;;93.40;36.65;;;-0.80;99.90;;;-144.05;72.54;125687.94;4993429;28;20018;-77
2023/01/26 00:11:27;;;;;;;95.57;35.88;;;-0.90;99.90;;;-144.05;72.91;125687.94;4994271;28;20038;-77
2023/01/26 00:13:57;;;;;;;91.53;35.63;;;-0.80;99.90;;;-144.05;72.78;125687.94;4994122;28;20498;-76
2023/01/26 00:16:24;;;;;;;92.00;36.60;;;-0.80;99.90;;;-144.05;72.75;125687.94;4994141;28;20030;-76
2023/01/26 00:18:50;;;;;;;85.38;34.88;;;-0.90;99.90;;;-144.05;72.67;125687.94;4993535;28;20109;-75
2023/01/26 00:21:20;;;;;;;93.03;35.72;;;-0.90;99.90;;;-144.05;72.83;125687.94;4976083;28;20180;-76
2023/01/26 00:23:47;;;;;;;91.05;35.35;;;-0.90;99.90;;;-144.05;72.73;125687.94;4993995;28;20030;-76
2023/01/26 00:26:20;;;;;;;92.90;34.78;;;-0.90;99.90;;;-144.05;72.71;125687.94;4993950;28;20092;-76
2023/01/26 00:28:46;;;;;;;88.20;35.92;;;-0.90;99.90;;;-144.05;72.79;125687.94;4993242;28;20030;-76
2023/01/26 00:31:18;;;;;;;99.15;36.53;;;-0.90;99.90;;;-144.05;72.78;125687.94;4993793;28;20110;-76
2023/01/26 00:33:44;;;;;;;99.47;35.88;;;-0.90;99.90;;;-144.05;72.86;125687.94;4993675;28;20109;-77
2023/01/26 00:36:11;;;;;;;93.65;35.28;;;-1.00;99.90;;;-144.05;72.89;125687.94;4975914;28;20173;-77
2023/01/26 00:38:39;;;;;;;92.65;38.60;;;-0.90;99.90;;;-144.05;73.02;125687.94;4975685;28;20034;-77
2023/01/26 00:41:05;;;;;;;90.25;35.22;;;-0.90;99.90;;;-144.05;72.96;125687.94;4993306;28;20041;-76
2023/01/26 00:43:31;;;;;;;91.78;32.83;;;-0.90;99.90;;;-144.05;73.12;125687.94;4993347;28;20032;-76
2023/01/26 00:45:57;;;;;;;91.93;35.95;;;-0.90;99.90;;;-144.05;73.07;125687.94;4993833;28;20031;-77
2023/01/26 00:48:23;;;;;;;102.97;37.28;;;-1.00;99.90;;;-144.05;73.54;125687.94;4993459;28;20054;-75
2023/01/26 00:50:52;;;;;;;106.85;37.78;;;-1.00;99.90;;;-144.05;73.83;125687.94;4975735;28;20486;-77
2023/01/26 00:53:18;;;;;;;97.15;35.33;;;-1.00;99.90;;;-144.05;74.14;125687.94;4993133;28;20033;-75
2023/01/26 00:55:44;;;;;;;110.18;38.28;;;-1.00;99.90;;;-144.05;74.17;125687.94;4993590;28;20065;-75
2023/01/26 00:58:10;;;;;;;101.68;37.85;;;-1.00;99.90;;;-144.05;74.34;125687.94;4993255;28;20034;-76
2023/01/26 01:00:37;;;;;;;102.22;37.17;;;-1.00;99.90;;;-144.05;74.27;125687.94;4993189;28;20088;-75
2023/01/26 01:03:06;;;;;;;100.38;36.75;;;-1.00;99.90;;;-144.05;74.16;125687.94;4993166;28;20022;-75
2023/01/26 01:05:33;;;;;;;96.80;35.65;;;-1.00;99.90;;;-144.05;74.63;125687.94;4992743;28;20509;-77
2023/01/26 01:08:00;;;;;;;97.72;35.85;;;-1.00;99.90;;;-144.05;74.44;125687.94;4975180;28;20030;-76
2023/01/26 01:10:27;;;;;;;93.38;35.33;;;-1.00;99.90;;;-144.05;74.69;125687.94;4992991;28;20034;-75
2023/01/26 01:12:54;;;;;;;107.03;38.90;;;-1.00;99.90;;;-144.05;75.02;125687.94;4994474;28;20068;-75
2023/01/26 01:15:19;;;;;;;111.00;38.60;;;-1.00;99.90;;;-144.05;75.12;125687.94;4993498;28;20030;-75
2023/01/26 01:17:45;;;;;;;102.82;37.40;;;-1.00;99.90;;;-144.05;75.40;125687.94;4992951;28;20450;-77
2023/01/26 01:20:11;;;;;;;114.75;38.65;;;-1.00;99.90;;;-144.05;75.46;125687.94;4994053;28;20505;-77
2023/01/26 01:22:38;;;;;;;109.20;40.22;;;-1.00;99.90;;;-144.05;75.68;125687.94;4993226;28;20030;-76
2023/01/26 01:25:04;;;;;;;101.40;37.95;;;-1.00;99.90;;;-144.05;76.02;125687.94;4993244;28;20084;-77
2023/01/26 01:27:30;;;;;;;110.03;37.90;;;-1.00;99.90;;;-144.05;76.12;125687.94;4993827;28;20026;-75
2023/01/26 01:29:56;;;;;;;95.95;35.40;;;-1.00;99.90;;;-144.05;76.01;125687.94;4992638;28;20109;-77
2023/01/26 01:32:22;;;;;;;99.97;36.80;;;-1.00;99.90;;;-144.05;76.34;125687.94;4992915;28;20132;-77
2023/01/26 01:34:49;;;;;;;114.97;40.40;;;-0.90;99.90;;;-144.05;76.72;125687.94;4993231;28;20030;-76
2023/01/26 01:37:16;;;;;;;114.80;39.65;;;-0.90;99.90;;;-144.05;77.06;125687.94;4992879;28;20375;-76
2023/01/26 01:39:43;;;;;;;112.63;38.42;;;-0.90;99.90;;;-144.05;77.03;125687.94;4992167;28;20030;-77
2023/01/26 01:42:09;;;;;;;117.43;39.70;;;-0.90;99.90;;;-144.05;76.92;125687.94;4974856;28;20026;-77
2023/01/26 01:44:37;;;;;;;112.50;39.08;;;-0.90;99.90;;;-144.05;77.01;125687.94;4992830;28;20029;-78
2023/01/26 01:47:20;;;;;;;102.95;35.13;;;-0.90;99.90;;;-144.05;76.91;125687.94;4974983;28;20026;-75
2023/01/26 01:49:51;;;;;;;109.20;38.22;;;-0.90;99.90;;;-144.05;76.88;125687.94;4992109;28;20038;-76
2023/01/26 01:52:30;;;;;;;109.32;38.15;;;-0.90;99.90;;;-144.05;76.77;125687.94;4992221;28;20148;-75
2023/01/26 01:55:09;;;;;;;120.88;39.88;;;-0.90;99.90;;;-144.05;77.03;125687.94;4992486;28;20034;-77
2023/01/26 01:57:52;;;;;;;115.25;38.72;;;-0.90;99.90;;;-144.05;77.07;125687.94;4974566;28;20092;-76
2023/01/26 02:00:23;;;;;;;104.10;37.50;;;-0.90;99.90;;;-144.05;77.23;125687.94;4975064;28;20034;-77
2023/01/26 02:03:20;;;;;;;124.60;39.70;;;-0.80;99.90;;;-144.05;77.53;125687.94;4975190;28;20498;-76
2023/01/26 02:06:12;;;;;;;107.65;37.25;;;-0.80;99.90;;;-144.05;77.32;125687.94;4975175;28;20117;-78
2023/01/26 02:08:50;;;;;;;112.28;37.92;;;-0.80;99.90;;;-144.05;77.60;125687.94;4992567;28;20033;-75
2023/01/26 02:11:35;;;;;;;109.35;36.85;;;-0.80;99.90;;;-144.05;77.44;125687.94;4992202;28;20335;-76
2023/01/26 02:14:08;;;;;;;109.75;38.60;;;-0.80;99.90;;;-144.05;77.76;125687.94;4992875;28;20435;-77
2023/01/26 02:16:35;;;;;;;109.88;36.67;;;-0.80;99.90;;;-144.05;77.68;125687.94;4992796;28;20054;-77
2023/01/26 02:19:01;;;;;;;104.20;35.42;;;-0.90;99.90;;;-144.05;77.60;125687.94;4974285;28;20378;-77
2023/01/26 02:21:30;;;;;;;113.47;37.08;;;-0.80;99.90;;;-144.05;77.60;125687.94;4992020;28;20031;-75
2023/01/26 02:24:21;;;;;;;105.65;34.67;;;-0.80;99.90;;;-144.05;77.69;125687.94;4975412;28;20038;-77
2023/01/26 02:26:47;;;;;;;101.75;33.40;;;-0.80;99.90;;;-144.05;77.88;125687.94;4992244;28;20088;-75
2023/01/26 02:29:13;;;;;;;107.00;36.53;;;-0.80;99.90;;;-144.05;77.79;125687.94;4991912;28;20041;-75
2023/01/26 02:31:41;;;;;;;106.00;34.90;;;-0.80;99.90;;;-144.05;78.00;125687.94;4976449;28;20470;-76
2023/01/26 02:34:07;;;;;;;107.57;33.63;;;-0.80;99.90;;;-144.05;78.01;125687.94;4996291;28;20525;-77
2023/01/26 02:36:33;;;;;;;103.28;33.33;;;-0.80;99.90;;;-144.05;77.96;125687.94;4996584;28;20030;-77
2023/01/26 02:39:28;;;;;;;92.88;32.97;;;-0.80;99.90;;;-144.05;78.00;125687.94;5017312;28;20027;-74
2023/01/26 02:44:43;;;;;;;97.88;31.38;;;-0.80;99.90;;;-144.05;78.10;125687.94;5004255;28;20048;-75
2023/01/26 02:47:16;;;;;;;103.05;32.47;;;-0.80;99.90;;;-144.05;77.94;125687.94;4996166;28;20485;-77
2023/01/26 02:49:46;;;;;;;87.78;31.92;;;-0.80;99.90;;;-144.05;77.87;125687.94;4995442;28;20027;-76
2023/01/26 02:52:14;;;;;;;102.43;32.72;;;-0.80;99.90;;;-144.05;78.10;125687.94;4995839;28;20340;-76
2023/01/26 02:57:26;;;;;;;90.97;32.47;;;-0.70;99.90;;;-144.05;78.09;125687.94;4995634;28;20222;-77
2023/01/26 02:59:51;;;;;;;109.03;33.63;;;-0.70;99.90;;;-144.05;77.94;125687.94;4995338;28;20019;-76
2023/01/26 03:02:18;;;;;;;95.53;33.50;;;-0.70;99.90;;;-144.05;77.75;125687.94;4978167;28;20516;-74
2023/01/26 03:04:44;;;;;;;90.90;32.22;;;-0.70;99.90;;;-144.05;77.89;125687.94;4996021;28;20421;-77
2023/01/26 03:07:10;;;;;;;95.97;32.42;;;-0.70;99.90;;;-144.05;77.86;125687.94;4995674;28;20034;-76
2023/01/26 03:09:36;;;;;;;114.80;38.28;;;-0.70;99.90;;;-144.05;78.15;125687.94;4995588;28;20035;-78
2023/01/26 03:12:02;;;;;;;122.50;37.17;;;-0.70;99.90;;;-144.05;77.79;125687.94;4995304;28;20038;-74
2023/01/26 03:14:28;;;;;;;109.18;38.95;;;-0.70;99.90;;;-144.05;77.90;125687.94;4994902;28;20026;-77
2023/01/26 03:16:54;;;;;;;116.43;36.85;;;-0.70;99.90;;;-144.05;78.15;125687.94;4994299;28;20405;-75
2023/01/26 03:27:47;;;;;;;108.50;36.00;;;-0.80;99.90;;;-144.05;78.19;125687.94;4995999;28;20058;-77
2023/01/26 03:30:17;;;;;;;98.35;33.08;;;-0.80;99.90;;;-144.05;78.44;125687.94;4995409;28;20039;-78
2023/01/26 03:32:44;;;;;;;120.65;35.45;;;-0.80;99.90;;;-144.05;78.51;125687.94;4995522;28;20049;-77
2023/01/26 03:35:21;;;;;;;107.80;36.85;;;-0.70;99.90;;;-144.05;78.55;125687.94;4994702;28;20117;-77
2023/01/26 03:37:53;;;;;;;111.50;39.13;;;-0.70;99.90;;;-144.05;78.21;125687.94;4995453;28;20042;-75
2023/01/26 03:56:52;;;;;;;108.93;35.38;;;-0.70;99.90;;;-144.05;78.49;125687.94;4994957;28;20044;-76
2023/01/26 03:59:36;;;;;;;119.30;36.45;;;-0.70;99.90;;;-144.05;78.43;125687.94;4978958;28;20476;-77
2023/01/26 04:10:25;;;;;;;107.90;38.17;;;-0.70;99.90;;;-144.05;79.05;125687.94;4994612;28;20278;-78
2023/01/26 04:23:56;;;;;;;100.85;32.63;;;-0.70;99.90;;;-144.05;79.02;125687.94;4994538;28;20045;-78
2023/01/26 04:26:34;;;;;;;105.95;34.85;;;-0.70;99.90;;;-144.05;79.03;125687.94;4993858;28;20026;-76
2023/01/26 04:29:09;;;;;;;97.60;35.10;;;-0.60;99.90;;;-144.05;78.78;125687.94;4976213;28;20026;-75
2023/01/26 04:31:39;;;;;;;102.18;33.38;;;-0.70;99.90;;;-144.05;78.85;125687.94;4993842;28;20414;-76
2023/01/26 04:34:11;;;;;;;120.03;37.40;;;-0.60;99.90;;;-144.05;78.96;125687.94;4994007;28;20374;-75
2023/01/26 04:36:38;;;;;;;105.93;34.60;;;-0.60;99.90;;;-144.05;78.70;125687.94;4993811;28;20046;-78
2023/01/26 04:39:04;;;;;;;96.15;33.50;;;-0.60;99.90;;;-144.05;78.75;125687.94;4995375;28;20030;-75
2023/01/26 04:41:31;;;;;;;103.22;33.08;;;-0.60;99.90;;;-144.05;79.02;125687.94;4994416;28;20109;-77
2023/01/26 04:43:58;;;;;;;98.85;33.53;;;-0.60;99.90;;;-144.05;78.63;125687.94;4976713;28;20482;-77
2023/01/26 04:46:24;;;;;;;109.18;35.85;;;-0.60;99.90;;;-144.05;78.67;125687.94;4994236;28;20037;-77
2023/01/26 04:48:50;;;;;;;103.13;34.40;;;-0.60;99.90;;;-144.05;78.70;125687.94;4993515;28;20034;-76
2023/01/26 04:51:20;;;;;;;107.50;35.22;;;-0.50;99.90;;;-144.05;79.00;125687.94;4993454;28;20037;-78
2023/01/26 04:53:49;;;;;;;113.45;34.83;;;-0.60;99.90;;;-144.05;78.82;125687.94;4996991;28;20092;-77
2023/01/26 04:56:32;;;;;;;117.15;37.55;;;-0.60;99.90;;;-144.05;78.91;125687.94;4993910;28;20030;-76
2023/01/26 04:59:04;;;;;;;104.03;33.75;;;-0.50;99.90;;;-144.05;78.93;125687.94;4976290;28;20054;-76
2023/01/26 05:01:30;;;;;;;129.82;42.83;;;-0.60;99.90;;;-144.05;78.90;125687.94;4993717;28;20027;-77
2023/01/26 05:04:01;;;;;;;122.35;40.35;;;-0.60;99.90;;;-144.05;78.96;125687.94;4994182;28;20055;-75
2023/01/26 05:06:27;;;;;;;124.72;40.85;;;-0.60;99.90;;;-144.05;78.97;125687.94;4993710;28;20029;-77
2023/01/26 05:08:54;;;;;;;110.15;39.08;;;-0.60;99.90;;;-144.05;79.07;125687.94;4993476;28;20106;-76
2023/01/26 05:11:20;;;;;;;119.30;38.42;;;-0.50;99.90;;;-144.05;78.98;125687.94;4993121;28;20046;-76
2023/01/26 05:13:46;;;;;;;112.97;35.22;;;-0.50;99.90;;;-144.05;78.96;125687.94;4993094;28;20042;-76
2023/01/26 05:16:13;;;;;;;118.70;37.05;;;-0.50;99.90;;;-144.05;78.85;125687.94;4993429;28;20037;-77
2023/01/26 05:18:41;;;;;;;125.85;39.30;;;-0.50;99.90;;;-144.05;78.80;125687.94;4993006;28;20505;-75
2023/01/26 05:21:08;;;;;;;125.10;42.55;;;-0.50;99.90;;;-144.05;78.87;125687.94;4993274;28;20030;-77
2023/01/26 05:23:34;;;;;;;128.00;40.85;;;-0.50;99.90;;;-144.05;78.90;125687.94;4993298;28;20061;-76
2023/01/26 05:26:00;;;;;;;129.00;41.05;;;-0.50;99.90;;;-144.05;79.11;125687.94;4993269;28;20023;-76
2023/01/26 05:28:26;;;;;;;125.00;39.95;;;-0.50;99.90;;;-144.05;79.00;125687.94;4993102;28;20144;-76
2023/01/26 05:30:52;;;;;;;129.38;40.35;;;-0.60;99.90;;;-144.05;79.02;125687.94;4992930;28;20046;-76
2023/01/26 05:33:21;;;;;;;124.47;40.58;;;-0.60;99.90;;;-144.05;78.84;125687.94;4993403;28;20034;-77
2023/01/26 05:35:52;;;;;;;122.55;40.50;;;-0.60;99.90;;;-144.05;79.05;125687.94;4993927;28;20034;-77
2023/01/26 05:38:19;;;;;;;126.07;38.78;;;-0.50;99.90;;;-144.05;79.19;125687.94;4975386;28;20026;-76
2023/01/26 05:40:45;;;;;;;137.02;45.38;;;-0.50;99.90;;;-144.05;79.17;125687.94;4992975;28;20026;-76
2023/01/26 05:43:12;;;;;;;130.00;39.65;;;-0.50;99.90;;;-144.05;79.43;125687.94;4993352;28;20034;-76
2023/01/26 05:45:40;;;;;;;139.63;43.80;;;-0.50;99.90;;;-144.05;79.43;125687.94;4993673;28;20105;-75
2023/01/26 05:48:06;;;;;;;136.10;41.65;;;-0.50;99.90;;;-144.05;79.62;125687.94;4994010;28;20038;-76
2023/01/26 05:50:32;;;;;;;146.70;46.25;;;-0.50;99.90;;;-144.05;79.47;125687.94;4993889;28;20035;-76
2023/01/26 05:52:59;;;;;;;151.27;46.75;;;-0.50;99.90;;;-144.05;79.54;125687.94;4993248;28;20033;-76
2023/01/26 05:55:26;;;;;;;135.57;42.50;;;-0.50;99.90;;;-144.05;79.55;125687.94;4992934;28;20114;-77
2023/01/26 05:57:52;;;;;;;133.60;42.05;;;-0.40;99.90;;;-144.05;79.66;125687.94;4993193;28;20027;-76
2023/01/26 06:00:18;;;;;;;130.02;41.90;;;-0.40;99.90;;;-144.05;79.54;125687.94;4992803;28;20371;-76
2023/01/26 06:02:44;;;;;;;140.20;45.20;;;-0.40;99.90;;;-144.05;79.74;125687.94;4992894;28;20085;-76
2023/01/26 06:05:10;;;;;;;138.15;43.85;;;-0.40;99.90;;;-144.05;79.70;125687.94;4975586;28;20386;-76
2023/01/26 06:07:36;;;;;;;126.63;41.90;;;-0.30;99.90;;;-144.05;79.92;125687.94;4998721;28;20085;-76
2023/01/26 06:10:04;;;;;;;145.60;45.17;;;-0.30;99.90;;;-144.05;79.77;125687.94;4999140;28;20406;-75
2023/01/26 06:12:34;;;;;;;130.23;42.83;;;-0.30;99.90;;;-144.05;79.63;125687.94;5009083;28;20030;-75
2023/01/26 06:15:02;;;;;;;134.10;42.78;;;-0.30;99.90;;;-144.05;79.63;125687.94;5019034;28;20027;-74
2023/01/26 06:17:28;;;;;;;131.38;42.15;;;-0.40;99.90;;;-144.05;79.72;125687.94;5022088;28;20029;-74
2023/01/26 06:19:53;;;;;;;132.50;43.70;;;-0.30;99.90;;;-144.05;79.49;125687.94;5019349;28;20093;-74
2023/01/26 06:22:19;;;;;;;123.07;39.65;;;-0.30;99.90;;;-144.05;79.32;125687.94;5015448;28;20038;-74
2023/01/26 06:24:46;;;;;;;117.25;37.75;;;-0.30;99.90;;;-144.05;79.25;125687.94;5005475;28;20038;-75
2023/01/26 06:27:17;;;;;;;113.60;36.25;;;-0.40;99.90;;;-144.05;79.11;125687.94;4999161;28;20038;-75
2023/01/26 06:29:44;;;;;;;109.97;36.05;;;-0.30;99.90;;;-144.05;79.32;125687.94;4981405;28;20482;-77
2023/01/26 06:32:12;;;;;;;118.80;37.88;;;-0.40;99.90;;;-144.05;79.43;125687.94;4999558;28;20031;-77
2023/01/26 06:34:38;;;;;;;117.30;37.53;;;-0.30;99.90;;;-144.05;79.57;125687.94;4999378;28;20504;-76
2023/01/26 06:37:04;;;;;;;108.25;37.30;;;-0.40;99.90;;;-144.05;79.43;125687.94;4999634;28;20038;-76
2023/01/26 06:39:30;;;;;;;117.10;37.55;;;-0.40;99.90;;;-144.05;79.14;125687.94;4999138;28;20031;-76
2023/01/26 06:41:56;;;;;;;110.25;36.60;;;-0.40;99.90;;;-144.05;79.45;125687.94;4999475;28;20030;-77
2023/01/26 06:44:22;;;;;;;106.45;34.47;;;-0.40;99.90;;;-144.05;79.35;125687.94;5003314;28;20026;-75
2023/01/26 06:46:47;;;;;;;115.07;36.22;;;-0.40;99.90;;;-144.05;79.42;125687.94;5014742;28;20059;-75
2023/01/26 06:49:15;;;;;;;108.05;34.90;;;-0.40;99.90;;;-144.05;79.35;125687.94;5002162;28;20038;-76
2023/01/26 06:52:01;;;;;;;111.00;36.15;;;-0.40;99.90;;;-144.05;79.69;125687.94;4982837;28;20027;-75
2023/01/26 06:54:27;;;;;;;103.07;34.67;;;-0.40;99.90;;;-144.05;79.61;125687.94;4999506;28;20041;-78
2023/01/26 06:56:53;;;;;;;102.03;32.67;;;-0.40;99.90;;;-144.05;79.68;125687.94;5000706;28;20034;-77
2023/01/26 06:59:19;;;;;;;96.28;31.60;;;-0.40;99.90;;;-144.05;79.93;125687.94;5000317;28;20374;-80
2023/01/26 07:01:47;;;;;;;105.03;33.50;;;-0.40;99.90;;;-144.05;80.04;125687.94;5001333;28;20034;-77
2023/01/26 07:04:15;;;;;;;100.18;34.10;;;-0.40;99.90;;;-144.05;80.10;125687.94;4982033;28;20030;-78
2023/01/26 07:06:42;;;;;;;99.90;33.88;;;-0.40;99.90;;;-144.05;80.15;125687.94;4999248;28;20449;-78
2023/01/26 07:09:09;;;;;;;108.53;34.15;;;-0.40;99.90;;;-144.05;79.95;125687.94;4981614;28;20041;-78
2023/01/26 07:11:36;;;;;;;100.53;34.03;;;-0.40;99.90;;;-144.05;80.22;125687.94;4998346;28;20037;-76
2023/01/26 07:14:01;;;;;;;109.93;35.25;;;-0.40;99.90;;;-144.05;80.15;125687.94;4999141;28;20034;-78
2023/01/26 07:16:27;;;;;;;108.20;33.30;;;-0.40;99.90;;;-144.05;79.99;125687.94;4998535;28;20030;-77
2023/01/26 07:18:54;;;;;;;99.43;33.92;;;-0.30;99.90;;;-144.05;80.27;125687.94;4994577;28;20030;-78
2023/01/26 07:21:21;;;;;;;104.38;36.10;;;-0.30;99.90;;;-144.05;79.89;125687.94;4995855;28;20037;-76
2023/01/26 07:23:49;;;;;;;100.32;33.92;;;-0.30;99.90;;;-144.05;80.01;125687.94;4995002;28;20026;-77
2023/01/26 07:26:16;;;;;;;98.38;35.72;;;-0.30;99.90;;;-144.05;79.91;125687.94;4995747;28;20390;-78
2023/01/26 07:28:42;;;;;;;99.13;31.70;;;-0.30;99.90;;;-144.05;79.98;125687.94;4995533;28;20080;-78
2023/01/26 07:31:11;;;;;;;92.22;32.63;;;-0.30;99.90;;;-144.05;80.13;125687.94;4977952;28;20038;-77
2023/01/26 07:33:37;;;;;;;95.13;32.08;;;-0.30;99.90;;;-144.05;80.07;125687.94;4995978;28;20158;-77
2023/01/26 07:36:05;;;;;;;103.35;35.47;;;-0.30;99.90;;;-144.05;80.33;125687.94;4995217;28;20048;-77
2023/01/26 07:38:33;;;;;;;102.63;33.83;;;-0.30;99.90;;;-144.05;80.22;125687.94;4994674;28;20034;-76
2023/01/26 07:41:11;;;;;;;99.95;32.00;;;-0.30;99.90;;;-144.05;80.20;125687.94;4977395;28;20026;-77
2023/01/26 07:43:40;;;;;;;88.90;31.20;;;-0.30;99.90;;;-144.05;80.28;125687.94;4994761;28;20035;-77
2023/01/26 07:46:06;;;;;;;103.35;34.33;;;-0.30;99.90;;;-144.05;80.07;125687.94;4994868;28;20022;-76
2023/01/26 07:48:33;;;;;;;107.35;35.20;;;-0.20;99.90;;;-144.05;79.92;125687.94;4995078;28;20044;-77
2023/01/26 07:51:02;;;;;;;96.13;32.45;;;-0.20;99.90;;;-144.05;79.92;125687.94;4978294;28;20042;-77
2023/01/26 07:53:30;;;;;;;95.38;33.08;;;-0.20;99.90;;;-144.05;80.17;125687.94;4995143;28;20109;-78
2023/01/26 07:56:15;;;;;;;96.00;31.98;;;-0.20;99.90;;;-144.05;80.29;125687.94;4995088;28;20026;-76
2023/01/26 07:58:41;;;;;;;89.53;29.02;;;-0.20;99.90;;;-144.05;80.27;125687.94;4995254;28;20042;-77
2023/01/26 08:01:13;;;;;;;94.28;31.88;;;-0.20;99.90;;;-144.05;80.10;125687.94;4995368;28;20030;-77
2023/01/26 08:03:41;;;;;;;92.70;31.35;;;-0.20;99.90;;;-144.05;80.12;125687.94;4994764;28;20121;-76
2023/01/26 08:06:08;;;;;;;92.40;30.63;;;-0.10;99.90;;;-144.05;80.30;125687.94;4994469;28;20042;-78
2023/01/26 08:08:34;;;;;;;94.10;31.77;;;-0.20;99.90;;;-144.05;80.14;125687.94;4994288;28;20508;-76
2023/01/26 08:11:01;;;;;;;85.28;29.75;;;-0.10;99.90;;;-144.05;80.38;125687.94;4976750;28;20450;-78
2023/01/26 08:13:29;;;;;;;88.10;28.92;;;-0.10;99.90;;;-144.05;80.12;125687.94;4977210;28;20373;-78
2023/01/26 08:16:12;;;;;;;90.53;29.15;;;-0.10;99.90;;;-144.05;80.27;125687.94;4994258;28;20064;-76
2023/01/26 08:18:41;;;;;;;92.13;30.25;;;-0.10;99.90;;;-144.05;80.32;125687.94;4993913;28;20049;-77
2023/01/26 08:21:10;;;;;;;87.97;29.40;;;-0.10;99.90;;;-144.05;80.35;125687.94;4994895;28;20497;-78
2023/01/26 08:23:36;;;;;;;92.00;32.65;;;-0.10;99.90;;;-144.05;80.37;125687.94;4976583;28;20034;-76
2023/01/26 08:26:10;;;;;;;94.00;31.65;;;0.00;99.90;;;-144.05;80.34;125687.94;4977212;28;20096;-76
2023/01/26 08:28:37;;;;;;;87.03;30.13;;;0.00;99.90;;;-144.05;80.20;125687.94;4995356;28;20038;-77
2023/01/26 08:31:11;;;;;;;86.57;30.15;;;0.00;99.90;;;-144.05;80.10;125687.94;4997005;28;20109;-77
2023/01/26 08:33:39;;;;;;;86.72;30.05;;;0.00;99.90;;;-144.05;80.10;125687.94;4976865;28;20038;-78
2023/01/26 08:36:11;;;;;;;91.93;30.02;;;0.10;99.90;;;-144.05;80.04;125687.94;4994374;28;20057;-77
2023/01/26 08:38:37;;;;;;;88.47;30.88;;;0.00;99.90;;;-144.05;80.04;125687.94;4993813;28;20084;-76
2023/01/26 08:41:04;;;;;;;84.60;28.67;;;0.10;99.90;;;-144.05;79.65;125687.94;4994055;28;20065;-76
2023/01/26 08:43:30;;;;;;;83.25;29.08;;;0.00;99.90;;;-144.05;79.07;125687.94;4994304;28;20026;-77
2023/01/26 08:45:56;;;;;;;80.80;27.63;;;0.10;99.90;;;-144.05;79.27;125687.94;4993880;28;20066;-78
2023/01/26 08:48:22;;;;;;;83.05;26.63;;;0.00;99.90;;;-144.05;79.33;125687.94;4993513;28;20034;-76
2023/01/26 08:50:55;;;;;;;76.45;28.38;;;0.00;99.90;;;-144.05;79.37;125687.94;4993365;28;20084;-77
2023/01/26 08:53:22;;;;;;;80.85;27.40;;;0.10;99.90;;;-144.05;79.32;125687.94;4993798;28;20031;-76
2023/01/26 08:55:49;;;;;;;82.47;28.58;;;0.10;99.90;;;-144.05;79.38;125687.94;4993716;28;20034;-76
2023/01/26 08:58:15;;;;;;;76.00;28.15;;;0.10;99.90;;;-144.05;79.05;125687.94;4976155;28;20570;-77
2023/01/26 09:00:41;;;;;;;76.10;27.05;;;0.10;99.90;;;-144.05;79.15;125687.94;4993223;28;20383;-76
2023/01/26 09:03:07;;;;;;;69.05;26.52;;;0.10;99.90;;;-144.05;79.15;125687.94;4993243;28;20127;-78
2023/01/26 09:05:38;;;;;;;66.20;24.67;;;0.10;99.90;;;-144.05;79.52;125687.94;4993827;28;20375;-76
2023/01/26 09:08:08;;;;;;;80.53;27.75;;;0.20;99.90;;;-144.05;78.98;125687.94;4975444;28;20041;-76
2023/01/26 09:10:36;;;;;;;79.10;28.02;;;0.20;99.90;;;-144.05;79.04;125687.94;4993040;28;20066;-76
2023/01/26 09:13:02;;;;;;;69.93;26.48;;;0.20;99.90;;;-144.05;78.88;125687.94;4993334;28;20045;-76
2023/01/26 09:15:28;;;;;;;85.00;28.30;;;0.20;99.90;;;-144.05;78.88;125687.94;4992895;28;20042;-75
2023/01/26 09:17:54;;;;;;;73.55;26.85;;;0.20;99.90;;;-144.05;79.32;125687.94;4993422;28;20129;-78
2023/01/26 09:20:20;;;;;;;85.40;28.67;;;0.30;99.90;;;-144.05;79.32;125687.94;4994024;28;20062;-78
2023/01/26 09:22:46;;;;;;;75.53;26.60;;;0.30;99.90;;;-144.05;79.36;125687.94;4975874;28;20053;-77
2023/01/26 09:25:14;;;;;;;94.60;31.10;;;0.30;99.90;;;-144.05;79.34;125687.94;4993462;28;20500;-75
2023/01/26 09:27:40;;;;;;;86.38;28.70;;;0.40;99.90;;;-144.05;78.78;125687.94;4993263;28;20037;-78
2023/01/26 09:30:08;;;;;;;76.80;29.17;;;0.40;99.90;;;-144.05;79.02;125687.94;4976224;28;20066;-77
2023/01/26 09:32:34;;;;;;;87.57;29.48;;;0.40;99.90;;;-144.05;78.94;125687.94;4995791;28;20061;-76
2023/01/26 09:35:00;;;;;;;86.63;30.15;;;0.40;99.90;;;-144.05;79.04;125687.94;4993760;28;20034;-76
2023/01/26 09:37:26;;;;;;;101.03;32.53;;;0.40;99.90;;;-144.05;79.23;125687.94;4992666;28;20038;-77
2023/01/26 09:39:52;;;;;;;87.35;29.45;;;0.40;99.90;;;-144.05;79.09;125687.94;4992338;28;20061;-76
2023/01/26 09:42:37;;;;;;;81.85;29.55;;;0.40;99.90;;;-144.05;78.95;125687.94;4991683;28;20057;-77
2023/01/26 09:45:26;;;;;;;84.57;30.30;;;0.40;99.90;;;-144.05;79.15;125687.94;4975117;28;20031;-77
2023/01/26 09:48:42;;;;;;;96.50;33.13;;;0.40;99.90;;;-144.05;79.33;125687.94;4992409;28;20030;-76
2023/01/26 09:52:09;;;;;;;104.10;36.33;;;0.50;99.90;;;-144.05;79.19;125687.94;4992564;28;20038;-76
2023/01/26 09:54:47;;;;;;;89.57;31.52;;;0.50;99.90;;;-144.05;78.82;125687.94;4982609;28;20096;-76
2023/01/26 09:57:45;;;;;;;100.65;32.88;;;0.50;99.90;;;-144.05;79.43;125687.94;4992437;28;20362;-76
2023/01/26 10:00:30;;;;;;;85.63;29.83;;;0.60;99.90;;;-144.05;79.39;125687.94;4975199;28;20547;-76
2023/01/26 10:03:40;;;;;;;74.95;26.48;;;0.60;99.90;;;-144.05;79.28;125687.94;4992891;28;20110;-76
2023/01/26 10:06:27;;;;;;;71.60;25.08;;;0.70;99.90;;;-144.05;79.50;125687.94;4992246;28;20026;-76
2023/01/26 10:08:59;;;;;;;85.20;29.58;;;0.70;99.90;;;-144.05;79.66;125687.94;4991951;28;20024;-76
2023/01/26 10:11:51;;;;;;;70.10;28.20;;;0.70;99.90;;;-144.05;79.33;125687.94;4975484;28;20034;-76
2023/01/26 10:15:02;;;;;;;96.93;35.25;;;0.70;99.90;;;-144.05;79.46;125687.94;4992265;28;20023;-76
2023/01/26 10:17:34;;;;;;;87.40;30.83;;;0.70;99.90;;;-144.05;79.08;125687.94;4992320;28;20486;-78
2023/01/26 10:20:27;;;;;;;81.53;29.52;;;0.70;99.90;;;-144.05;79.52;125687.94;4974420;28;20038;-76
2023/01/26 10:23:16;;;;;;;77.03;27.90;;;0.70;99.90;;;-144.05;79.34;125687.94;4992146;28;20053;-76
2023/01/26 10:25:47;;;;;;;67.95;26.73;;;0.60;99.90;;;-144.05;79.46;125687.94;4992479;28;20458;-75
2023/01/26 10:28:43;;;;;;;72.85;28.60;;;0.70;99.90;;;-144.05;79.90;125687.94;4974233;28;20034;-76
2023/01/26 10:31:31;;;;;;;66.35;26.60;;;0.70;99.90;;;-144.05;79.55;125687.94;4972509;28;20041;-76
2023/01/26 10:34:22;;;;;;;68.03;25.98;;;0.80;99.90;;;-144.05;79.97;125687.94;4992216;28;20118;-76
2023/01/26 10:36:48;;;;;;;68.55;25.58;;;0.80;99.90;;;-144.05;79.62;125687.94;4992841;28;20073;-77
2023/01/26 10:39:17;;;;;;;74.00;25.83;;;0.80;99.90;;;-144.05;79.89;125687.94;4992096;28;20486;-77
2023/01/26 10:42:02;;;;;;;69.47;23.98;;;0.80;99.90;;;-144.05;79.55;125687.94;4992206;28;20069;-78
2023/01/26 10:44:39;;;;;;;65.82;26.15;;;0.70;99.90;;;-144.05;79.47;125687.94;4974511;28;20026;-78
2023/01/26 10:47:25;;;;;;;56.63;23.20;;;0.80;99.90;;;-144.05;79.41;125687.94;4975034;28;20069;-75
2023/01/26 10:49:51;;;;;;;65.00;25.17;;;0.80;99.90;;;-144.05;79.44;125687.94;4984227;28;20106;-77